Hundvaag 1 weather for Jul 1996
Month no. 109
Obs.
Da.
Temp. Dew Point Precip. Wind
Speed
Wind gusts Cloud cover Press. Humidity Wind dir. Sunny OPT
01.07.1996 9,4   8,0     1       1  
02.07.1996 9,3   0,6     0          
03.07.1996 9,5   0,4     2       1  
04.07.1996 13,2   1,7     0       1  
05.07.1996 10,8   3,9     0          
06.07.1996 9,7   0,0     0          
07.07.1996 13,3   0,0     3          
08.07.1996 13,6   5,8     5          
09.07.1996 13,6   0,0     10       1  
10.07.1996 12,6   0,0     0          
11.07.1996 13,2   4,0     3          
12.07.1996 13,2   0,4     10       1  
13.07.1996 12,1   0,4     10          
14.07.1996 10,9   3,8     2          
15.07.1996 10,9   0,5     5          
16.07.1996 11,1   0,1     7          
17.07.1996 11,8   0,0     10          
18.07.1996 11,9   0,0     5          
19.07.1996 13,3   0,0     3          
20.07.1996 12,6   0,0     2       1  
21.07.1996 14,3   0,0     10       1  
22.07.1996 17,3   0,0     0       1  
23.07.1996 16,7   1,1     0          
24.07.1996 16,0   4,1     1       1  
25.07.1996 11,8   0,0     0          
26.07.1996 12,8   0,8     0          
27.07.1996 11,8   2,3     0       1  
28.07.1996 13,6   1,0     2       1  
29.07.1996 11,7   0,0     0       1  
30.07.1996 9,3   0,0     10       1  
31.07.1996 11,7   1,0     0          
Avrg/Sum 12,4   39,9     3,3       13